createdAt,value
2022-09-12T00:01:19.652Z,100653.69
2022-09-12T00:03:46.976Z,100652.91
2022-09-12T00:06:33.926Z,100657.53
2022-09-12T00:09:06.101Z,100648.03
2022-09-12T00:11:36.441Z,100648.59
2022-09-12T00:14:04.667Z,100654.03
2022-09-12T00:16:33.846Z,100649.22
2022-09-12T00:19:01.315Z,100652.59
2022-09-12T00:21:28.048Z,100653.31
2022-09-12T00:23:55.206Z,100651.97
2022-09-12T00:26:22.338Z,100642.03
2022-09-12T00:28:49.676Z,100644.84
2022-09-12T00:31:19.277Z,100635.66
2022-09-12T00:33:46.820Z,100631.06
2022-09-12T00:36:16.603Z,100623.72
2022-09-12T00:38:44.460Z,100625.06
2022-09-12T00:41:18.502Z,100632.06
2022-09-12T00:43:58.300Z,100626.72
2022-09-12T00:46:46.889Z,100636.03
2022-09-12T00:49:34.793Z,100634.34
2022-09-12T00:52:09.737Z,100629.09
2022-09-12T00:54:46.363Z,100632.88
2022-09-12T00:57:16.170Z,100625.91
2022-09-12T00:59:48.848Z,100634.84
2022-09-12T01:02:15.798Z,100631.38
2022-09-12T01:04:44.498Z,100616.66
2022-09-12T01:07:12.674Z,100623.19
2022-09-12T01:09:41.678Z,100628.94
2022-09-12T01:12:08.670Z,100627.41
2022-09-12T01:14:35.699Z,100626.63
2022-09-12T01:17:02.494Z,100623.84
2022-09-12T01:19:47.898Z,100615.72
2022-09-12T01:22:31.738Z,100618.38
2022-09-12T01:25:29.355Z,100617.28
2022-09-12T01:28:25.453Z,100605.38
2022-09-12T01:31:05.763Z,100610.88
2022-09-12T01:33:41.083Z,100607.09
2022-09-12T01:36:24.130Z,100611.88
2022-09-12T01:39:00.473Z,100605.63
2022-09-12T01:41:29.732Z,100598.94
2022-09-12T01:43:59.392Z,100604.59
2022-09-12T01:46:41.334Z,100605.38
2022-09-12T01:49:23.012Z,100601.34
2022-09-12T01:52:10.938Z,100601.09
2022-09-12T01:54:47.963Z,100601.69
2022-09-12T01:57:22.543Z,100595.44
2022-09-12T01:59:54.227Z,100595.69
2022-09-12T02:02:38.479Z,100595.19
2022-09-12T02:05:18.517Z,100589.78
2022-09-12T02:07:50.365Z,100588.16
2022-09-12T02:10:32.751Z,100586.53
2022-09-12T02:13:32.277Z,100593.31
2022-09-12T02:16:05.915Z,100591.69
2022-09-12T02:18:34.147Z,100585.75
2022-09-12T02:21:01.514Z,100590.06
2022-09-12T02:23:31.314Z,100587.31
2022-09-12T02:26:06.505Z,100586.75
2022-09-12T02:28:37.873Z,100583.78
2022-09-12T02:31:20.821Z,100579.47
2022-09-12T02:33:59.783Z,100576.50
2022-09-12T02:36:43.408Z,100577.31
2022-09-12T02:39:10.084Z,100572.41
2022-09-12T02:41:37.046Z,100577.88
2022-09-12T02:44:04.690Z,100574.91
2022-09-12T02:46:48.611Z,100579.53
2022-09-12T02:49:17.140Z,100572.19
2022-09-12T02:51:45.565Z,100581.72
2022-09-12T02:54:14.465Z,100580.31
2022-09-12T02:56:43.757Z,100582.50
2022-09-12T02:59:15.742Z,100578.97
2022-09-12T03:01:58.808Z,100574.59
2022-09-12T03:04:34.416Z,100574.84
2022-09-12T03:07:19.265Z,100574.38
2022-09-12T03:10:19.802Z,100573.84
2022-09-12T03:12:49.406Z,100577.66
2022-09-12T03:15:33.949Z,100573.00
2022-09-12T03:18:19.708Z,100572.16
2022-09-12T03:21:09.585Z,100573.00
2022-09-12T03:23:51.484Z,100562.69
2022-09-12T03:26:31.072Z,100564.84
2022-09-12T03:28:59.314Z,100560.00
2022-09-12T03:31:26.069Z,100560.28
2022-09-12T03:33:52.662Z,100563.56
2022-09-12T03:36:25.231Z,100567.06
2022-09-12T03:38:52.851Z,100562.50
2022-09-12T03:41:19.912Z,100558.94
2022-09-12T03:43:47.049Z,100557.03
2022-09-12T03:46:14.190Z,100556.50
2022-09-12T03:48:41.688Z,100554.63
2022-09-12T03:51:10.211Z,100553.81
2022-09-12T03:53:36.964Z,100556.53
2022-09-12T03:56:08.733Z,100563.03
2022-09-12T03:58:36.315Z,100558.97
2022-09-12T04:01:12.481Z,100560.03
2022-09-12T04:03:44.040Z,100552.44
2022-09-12T04:06:12.518Z,100554.09
2022-09-12T04:08:39.278Z,100557.31
2022-09-12T04:11:14.816Z,100555.19
2022-09-12T04:13:44.083Z,100559.50
2022-09-12T04:16:11.468Z,100558.44
2022-09-12T04:18:38.566Z,100562.78
2022-09-12T04:21:07.998Z,100557.06
2022-09-12T04:23:35.391Z,100567.91
2022-09-12T04:26:03.418Z,100563.06
2022-09-12T04:28:30.278Z,100560.03
2022-09-12T04:31:01.813Z,100554.63
2022-09-12T04:33:28.434Z,100553.53
2022-09-12T04:35:55.018Z,100556.81
2022-09-12T04:38:21.666Z,100555.16
2022-09-12T04:40:49.279Z,100558.97
2022-09-12T04:43:17.788Z,100554.91
2022-09-12T04:45:44.490Z,100560.28
2022-09-12T04:48:11.302Z,100555.94
2022-09-12T04:50:38.129Z,100566.00
2022-09-12T04:53:04.756Z,100559.25
2022-09-12T04:55:35.460Z,100559.53
2022-09-12T04:58:02.369Z,100557.38
2022-09-12T05:00:29.033Z,100560.06
2022-09-12T05:02:55.865Z,100560.03
2022-09-12T05:05:22.632Z,100556.53
2022-09-12T05:07:49.297Z,100548.94
2022-09-12T05:10:16.388Z,100550.03
2022-09-12T05:12:43.082Z,100549.22
2022-09-12T05:15:10.024Z,100558.44
2022-09-12T05:17:36.744Z,100555.75
2022-09-12T05:20:04.066Z,100562.22
2022-09-12T05:22:30.847Z,100556.28
2022-09-12T05:24:57.462Z,100554.91
2022-09-12T05:27:24.390Z,100561.69
2022-09-12T05:29:51.379Z,100554.63
2022-09-12T05:32:18.022Z,100560.06
2022-09-12T05:34:44.818Z,100559.78
2022-09-12T05:37:11.371Z,100558.44
2022-09-12T05:39:37.976Z,100560.34
2022-09-12T05:42:04.896Z,100569.28
2022-09-12T05:44:31.584Z,100557.63
2022-09-12T05:46:58.176Z,100565.75
2022-09-12T05:49:24.875Z,100563.84
2022-09-12T05:51:51.610Z,100576.84
2022-09-12T05:54:20.345Z,100574.97
2022-09-12T05:56:48.266Z,100568.75
2022-09-12T05:59:18.371Z,100573.63
2022-09-12T06:01:45.732Z,100576.03
2022-09-12T06:04:12.880Z,100569.25
2022-09-12T06:06:42.432Z,100569.28
2022-09-12T06:09:10.211Z,100578.47
2022-09-12T06:11:42.751Z,100580.09
2022-09-12T06:14:11.596Z,100571.97
2022-09-12T06:16:38.848Z,100574.16
2022-09-12T06:19:15.901Z,100579.03
2022-09-12T06:21:42.623Z,100576.34
2022-09-12T06:24:09.332Z,100571.97
2022-09-12T06:26:36.423Z,100570.09
2022-09-12T06:29:03.744Z,100566.00
2022-09-12T06:31:33.767Z,100561.38
2022-09-12T06:34:03.080Z,100560.25
2022-09-12T06:36:48.904Z,100559.91
2022-09-12T06:39:17.928Z,100551.75
2022-09-12T06:41:45.245Z,100556.56
2022-09-12T06:44:22.271Z,100557.88
2022-09-12T06:46:49.381Z,100558.09
2022-09-12T06:49:17.546Z,100564.53
2022-09-12T06:51:44.392Z,100566.63
2022-09-12T06:54:16.717Z,100579.53
2022-09-12T06:56:44.152Z,100577.31
2022-09-12T06:59:10.955Z,100573.59
2022-09-12T07:01:37.943Z,100576.28
2022-09-12T07:04:04.970Z,100579.91
2022-09-12T07:06:37.267Z,100580.72
2022-09-12T07:09:06.000Z,100588.22
2022-09-12T07:11:35.235Z,100585.13
2022-09-12T07:14:03.805Z,100582.94
2022-09-12T07:16:31.401Z,100590.88
2022-09-12T07:19:00.516Z,100589.88
2022-09-12T07:21:28.228Z,100587.81
2022-09-12T07:23:57.708Z,100582.47
2022-09-12T07:26:27.132Z,100588.63
2022-09-12T07:29:07.959Z,100580.91
2022-09-12T07:31:42.268Z,100574.09
2022-09-12T07:34:09.237Z,100571.72
2022-09-12T07:36:36.336Z,100578.75
2022-09-12T07:39:03.444Z,100591.84
2022-09-12T07:41:31.929Z,100578.28
2022-09-12T07:44:00.311Z,100581.31
2022-09-12T07:46:29.518Z,100581.25
2022-09-12T07:48:58.246Z,100570.88
2022-09-12T07:51:26.480Z,100577.06
2022-09-12T07:53:53.137Z,100581.72
2022-09-12T07:56:21.618Z,100575.63
2022-09-12T07:58:50.283Z,100580.94
2022-09-12T08:01:19.722Z,100576.53
2022-09-12T08:03:53.370Z,100581.19
2022-09-12T08:06:24.116Z,100575.22
2022-09-12T08:08:52.519Z,100576.13
2022-09-12T08:11:21.201Z,100571.81
2022-09-12T08:13:53.062Z,100578.38
2022-09-12T08:16:23.538Z,100575.75
2022-09-12T08:18:50.482Z,100570.41
2022-09-12T08:21:26.100Z,100565.53
2022-09-12T08:23:55.214Z,100553.09
2022-09-12T08:26:22.080Z,100559.38
2022-09-12T08:28:49.643Z,100568.06
2022-09-12T08:31:19.647Z,100571.72
2022-09-12T08:33:46.470Z,100568.44
2022-09-12T08:36:17.244Z,100571.91
2022-09-12T08:38:46.220Z,100570.28
2022-09-12T08:41:18.716Z,100562.25
2022-09-12T08:43:52.024Z,100569.34
2022-09-12T08:46:28.809Z,100567.59
2022-09-12T08:48:58.261Z,100570.00
2022-09-12T08:51:25.404Z,100567.22
2022-09-12T08:53:55.900Z,100571.66
2022-09-12T08:56:23.155Z,100572.69
2022-09-12T08:58:49.969Z,100569.91
2022-09-12T09:01:32.650Z,100569.75
2022-09-12T09:04:28.114Z,100560.09
2022-09-12T09:07:07.198Z,100562.00
2022-09-12T09:09:50.018Z,100566.78
2022-09-12T09:12:36.436Z,100570.44
2022-09-12T09:15:35.949Z,100566.69
2022-09-12T09:18:25.212Z,100563.06
2022-09-12T09:21:02.592Z,100562.34
2022-09-12T09:23:47.093Z,100571.56
2022-09-12T09:26:40.460Z,100564.19
2022-09-12T09:29:17.769Z,100565.78
2022-09-12T09:31:49.140Z,100563.63
2022-09-12T09:34:21.131Z,100570.84
2022-09-12T09:37:16.238Z,100571.22
2022-09-12T09:40:18.123Z,100565.47
2022-09-12T09:42:57.027Z,100561.03
2022-09-12T09:45:27.628Z,100554.84
2022-09-12T09:48:03.678Z,100563.34
2022-09-12T09:50:30.471Z,100558.69
2022-09-12T09:52:59.977Z,100555.19
2022-09-12T09:55:34.595Z,100553.63
2022-09-12T09:58:01.176Z,100556.38
2022-09-12T10:00:33.861Z,100560.59
2022-09-12T10:03:03.226Z,100553.84
2022-09-12T10:05:31.337Z,100553.41
2022-09-12T10:07:58.723Z,100561.19
2022-09-12T10:10:27.135Z,100559.56
2022-09-12T10:13:18.233Z,100555.88
2022-09-12T10:16:00.887Z,100552.81
2022-09-12T10:18:39.751Z,100541.97
2022-09-12T10:21:20.641Z,100544.38
2022-09-12T10:23:51.346Z,100541.13
2022-09-12T10:26:22.637Z,100534.44
2022-09-12T10:28:56.535Z,100532.34
2022-09-12T10:31:36.023Z,100533.41
2022-09-12T10:34:02.735Z,100521.34
2022-09-12T10:36:38.401Z,100519.25
2022-09-12T10:39:06.876Z,100516.50
2022-09-12T10:41:41.461Z,100515.19
2022-09-12T10:44:14.628Z,100524.06
2022-09-12T10:46:42.122Z,100514.88
2022-09-12T10:49:26.995Z,100505.50
2022-09-12T10:51:55.184Z,100512.41
2022-09-12T10:54:26.006Z,100507.28
2022-09-12T10:56:59.932Z,100503.06
2022-09-12T11:00:02.342Z,100505.19
2022-09-12T11:02:41.976Z,100488.59
2022-09-12T11:05:22.910Z,100492.81
2022-09-12T11:08:14.364Z,100484.91
2022-09-12T11:10:44.587Z,100478.28
2022-09-12T11:13:29.976Z,100477.63
2022-09-12T11:16:50.495Z,100483.44
2022-09-12T11:19:33.779Z,100481.19
2022-09-12T11:22:18.919Z,100472.31
2022-09-12T11:25:14.312Z,100468.63
2022-09-12T11:27:51.528Z,100472.63
2022-09-12T11:30:18.446Z,100469.91
2022-09-12T11:32:56.038Z,100478.63
2022-09-12T11:35:31.545Z,100473.78
2022-09-12T11:38:28.475Z,100472.31
2022-09-12T11:41:04.757Z,100472.16
2022-09-12T11:43:49.414Z,100463.78
2022-09-12T11:46:38.440Z,100464.59
2022-09-12T11:49:13.498Z,100465.56
2022-09-12T11:51:53.650Z,100451.22
2022-09-12T11:54:41.571Z,100449.75
2022-09-12T11:57:16.895Z,100447.50
2022-09-12T11:59:49.920Z,100448.13
2022-09-12T12:02:27.819Z,100441.06
2022-09-12T12:05:03.513Z,100440.59
2022-09-12T12:07:45.414Z,100440.91
2022-09-12T12:10:26.999Z,100435.41
2022-09-12T12:12:56.107Z,100438.16
2022-09-12T12:15:25.322Z,100441.84
2022-09-12T12:18:08.283Z,100434.63
2022-09-12T12:20:36.035Z,100424.47
2022-09-12T12:23:03.975Z,100420.28
2022-09-12T12:25:55.762Z,100428.16
2022-09-12T12:28:41.280Z,100421.84
2022-09-12T12:31:09.843Z,100414.16
2022-09-12T12:33:39.443Z,100416.41
2022-09-12T12:36:10.359Z,100417.06
2022-09-12T12:38:39.196Z,100416.41
2022-09-12T12:41:25.780Z,100414.78
2022-09-12T12:43:56.219Z,100409.47
2022-09-12T12:46:25.471Z,100402.06
2022-09-12T12:48:56.672Z,100389.94
2022-09-12T12:51:31.875Z,100393.69
2022-09-12T12:54:01.038Z,100390.13
2022-09-12T12:56:42.389Z,100391.91
2022-09-12T12:59:20.055Z,100390.47
2022-09-12T13:01:54.962Z,100388.69
2022-09-12T13:04:25.911Z,100385.78
2022-09-12T13:06:57.701Z,100376.72
2022-09-12T13:09:30.831Z,100376.22
2022-09-12T13:12:05.069Z,100375.91
2022-09-12T13:14:50.564Z,100373.84
2022-09-12T13:17:26.001Z,100364.50
2022-09-12T13:20:30.551Z,100365.56
2022-09-12T13:22:58.161Z,100371.19
2022-09-12T13:25:36.524Z,100373.28
2022-09-12T13:28:14.878Z,100368.63
2022-09-12T13:30:54.807Z,100358.97
2022-09-12T13:33:36.642Z,100351.19
2022-09-12T13:36:09.862Z,100352.31
2022-09-12T13:38:57.779Z,100349.47
2022-09-12T13:41:26.981Z,100351.31
2022-09-12T13:43:53.907Z,100344.56
2022-09-12T13:46:33.905Z,100348.53
2022-09-12T13:49:06.998Z,100345.56
2022-09-12T13:51:33.992Z,100338.84
2022-09-12T13:54:04.602Z,100335.84
2022-09-12T13:56:31.792Z,100334.34
2022-09-12T13:59:01.005Z,100326.72
2022-09-12T14:01:45.824Z,100321.91
2022-09-12T14:04:43.560Z,100324.91
2022-09-12T14:07:25.548Z,100321.75
2022-09-12T14:09:58.749Z,100315.91
2022-09-12T14:12:36.403Z,100308.63
2022-09-12T14:15:03.692Z,100318.41
2022-09-12T14:17:36.684Z,100314.88
2022-09-12T14:20:18.500Z,100315.94
2022-09-12T14:22:49.342Z,100319.91
2022-09-12T14:25:24.422Z,100322.22
2022-09-12T14:27:56.593Z,100320.03
2022-09-12T14:30:32.441Z,100319.53
2022-09-12T14:33:11.294Z,100321.19
2022-09-12T14:35:45.095Z,100317.31
2022-09-12T14:38:11.799Z,100304.66
2022-09-12T14:40:48.546Z,100307.50
2022-09-12T14:43:28.284Z,100305.66
2022-09-12T14:45:59.550Z,100305.75
2022-09-12T14:48:29.783Z,100290.81
2022-09-12T14:50:56.524Z,100288.31
2022-09-12T14:53:30.363Z,100283.56
2022-09-12T14:56:09.831Z,100280.34
2022-09-12T14:58:37.929Z,100280.66
2022-09-12T15:01:07.998Z,100280.72
2022-09-12T15:03:51.827Z,100279.41
2022-09-12T15:06:31.256Z,100270.50
2022-09-12T15:09:02.163Z,100270.16
2022-09-12T15:11:29.551Z,100260.41
2022-09-12T15:13:56.659Z,100257.41
2022-09-12T15:16:23.339Z,100260.94
2022-09-12T15:18:50.094Z,100259.78
2022-09-12T15:21:19.350Z,100249.09
2022-09-12T15:23:49.681Z,100246.38
2022-09-12T15:26:22.467Z,100249.81
2022-09-12T15:28:50.377Z,100253.66
2022-09-12T15:31:30.599Z,100249.75
2022-09-12T15:34:00.021Z,100248.66
2022-09-12T15:36:28.732Z,100248.44
2022-09-12T15:38:55.667Z,100243.47
2022-09-12T15:41:30.906Z,100242.28
2022-09-12T15:43:57.782Z,100234.78
2022-09-12T15:46:24.558Z,100241.00
2022-09-12T15:48:51.169Z,100228.47
2022-09-12T15:51:20.147Z,100230.03
2022-09-12T15:53:48.379Z,100227.81
2022-09-12T15:56:17.605Z,100232.16
2022-09-12T15:58:57.622Z,100225.16
2022-09-12T16:01:26.177Z,100223.72
2022-09-12T16:03:52.786Z,100217.78
2022-09-12T16:06:19.425Z,100227.59
2022-09-12T16:08:46.123Z,100223.94
2022-09-12T16:11:22.457Z,100224.34
2022-09-12T16:13:49.619Z,100212.50
2022-09-12T16:16:16.286Z,100212.00
2022-09-12T16:18:43.330Z,100206.25
2022-09-12T16:21:14.878Z,100209.53
2022-09-12T16:23:43.625Z,100207.59
2022-09-12T16:26:10.507Z,100206.72
2022-09-12T16:28:37.441Z,100209.75
2022-09-12T16:31:06.996Z,100202.03
2022-09-12T16:33:34.754Z,100202.84
2022-09-12T16:36:03.357Z,100197.00
2022-09-12T16:38:31.149Z,100196.75
2022-09-12T16:41:02.588Z,100199.63
2022-09-12T16:43:30.620Z,100203.28
2022-09-12T16:46:05.429Z,100201.84
2022-09-12T16:48:33.598Z,100199.66
2022-09-12T16:51:03.307Z,100202.91
2022-09-12T16:53:31.538Z,100203.91
2022-09-12T16:55:58.344Z,100197.56
2022-09-12T16:58:25.201Z,100198.09
2022-09-12T17:01:07.299Z,100207.16
2022-09-12T17:03:35.767Z,100202.13
2022-09-12T17:06:08.872Z,100207.63
2022-09-12T17:08:41.228Z,100199.63
2022-09-12T17:11:10.417Z,100198.81
2022-09-12T17:14:00.601Z,100199.34
2022-09-12T17:16:26.492Z,100191.81
2022-09-12T17:18:54.621Z,100202.75
2022-09-12T17:21:22.472Z,100201.44
2022-09-12T17:23:49.858Z,100191.31
2022-09-12T17:26:16.766Z,100190.66
2022-09-12T17:28:44.424Z,100191.16
2022-09-12T17:31:14.548Z,100196.47
2022-09-12T17:33:44.055Z,100191.31
2022-09-12T17:36:15.081Z,100185.22
2022-09-12T17:38:42.906Z,100189.09
2022-09-12T17:41:16.165Z,100184.56
2022-09-12T17:43:45.988Z,100181.69
2022-09-12T17:46:13.531Z,100190.69
2022-09-12T17:48:41.572Z,100188.63
2022-09-12T17:51:09.862Z,100186.19
2022-09-12T17:53:36.671Z,100188.78
2022-09-12T17:56:05.272Z,100196.97
2022-09-12T17:58:33.194Z,100197.03
2022-09-12T18:01:20.909Z,100203.91
2022-09-12T18:03:48.484Z,100213.13
2022-09-12T18:06:15.283Z,100209.56
2022-09-12T18:08:43.520Z,100208.94
2022-09-12T18:11:10.731Z,100209.91
2022-09-12T18:13:37.630Z,100202.19
2022-09-12T18:16:08.128Z,100208.00
2022-09-12T18:18:36.193Z,100209.13
2022-09-12T18:21:05.140Z,100209.63
2022-09-12T18:23:32.177Z,100206.88
2022-09-12T18:26:08.958Z,100205.38
2022-09-12T18:28:38.449Z,100210.22
2022-09-12T18:31:11.623Z,100207.47
2022-09-12T18:33:38.647Z,100204.25
2022-09-12T18:36:07.052Z,100204.41
2022-09-12T18:38:35.270Z,100200.22
2022-09-12T18:41:10.935Z,100206.06
2022-09-12T18:43:37.980Z,100217.81
2022-09-12T18:46:11.318Z,100215.09
2022-09-12T18:48:38.599Z,100218.56
2022-09-12T18:51:10.662Z,100212.31
2022-09-12T18:53:39.988Z,100214.22
2022-09-12T18:56:12.241Z,100206.66
2022-09-12T18:58:42.239Z,100200.88
2022-09-12T19:01:21.361Z,100208.75
2022-09-12T19:03:48.466Z,100202.16
2022-09-12T19:06:21.438Z,100206.03
2022-09-12T19:08:50.212Z,100209.69
2022-09-12T19:11:17.407Z,100197.31
2022-09-12T19:13:46.117Z,100195.22
2022-09-12T19:16:16.499Z,100202.47
2022-09-12T19:18:44.441Z,100208.09
2022-09-12T19:21:17.649Z,100205.03
2022-09-12T19:23:45.739Z,100210.34
2022-09-12T19:26:14.188Z,100210.34
2022-09-12T19:28:42.447Z,100214.69
2022-09-12T19:31:12.510Z,100205.34
2022-09-12T19:33:41.044Z,100203.22
2022-09-12T19:36:33.716Z,100207.75
2022-09-12T19:38:58.998Z,100203.69
2022-09-12T19:41:26.152Z,100200.34
2022-09-12T19:43:53.275Z,100203.03
2022-09-12T19:46:22.279Z,100196.94
2022-09-12T19:48:49.798Z,100190.00
2022-09-12T19:51:17.693Z,100193.06
2022-09-12T19:53:44.938Z,100190.66
2022-09-12T19:56:13.696Z,100185.31
2022-09-12T19:58:45.547Z,100173.91
2022-09-12T20:01:28.496Z,100166.84
2022-09-12T20:03:58.318Z,100180.97
2022-09-12T20:06:26.298Z,100169.56
2022-09-12T20:08:53.788Z,100169.72
2022-09-12T20:11:23.932Z,100171.66
2022-09-12T20:13:51.648Z,100165.63
2022-09-12T20:16:28.772Z,100161.94
2022-09-12T20:19:01.377Z,100157.59
2022-09-12T20:21:31.617Z,100167.69
2022-09-12T20:24:04.722Z,100169.25
2022-09-12T20:26:32.337Z,100168.91
2022-09-12T20:28:59.905Z,100175.75
2022-09-12T20:31:26.837Z,100177.81
2022-09-12T20:33:55.023Z,100170.13
2022-09-12T20:36:21.986Z,100159.78
2022-09-12T20:38:54.301Z,100160.13
2022-09-12T20:41:24.821Z,100148.50
2022-09-12T20:43:56.479Z,100153.34
2022-09-12T20:46:24.821Z,100158.09
2022-09-12T20:48:51.776Z,100157.91
2022-09-12T20:51:19.801Z,100150.84
2022-09-12T20:53:47.164Z,100149.88
2022-09-12T20:56:15.057Z,100145.84
2022-09-12T20:58:44.363Z,100146.81
2022-09-12T21:01:13.650Z,100133.31
2022-09-12T21:03:42.263Z,100131.03
2022-09-12T21:06:10.517Z,100131.19
2022-09-12T21:08:37.659Z,100123.78
2022-09-12T21:11:05.275Z,100121.56
2022-09-12T21:13:32.278Z,100125.06
2022-09-12T21:16:07.259Z,100114.97
2022-09-12T21:18:35.195Z,100107.75
2022-09-12T21:21:02.242Z,100113.59
2022-09-12T21:23:29.923Z,100121.78
2022-09-12T21:25:56.710Z,100118.09
2022-09-12T21:28:23.487Z,100115.47
2022-09-12T21:30:51.103Z,100130.34
2022-09-12T21:33:19.586Z,100128.84
2022-09-12T21:35:47.524Z,100128.88
2022-09-12T21:38:17.478Z,100122.34
2022-09-12T21:40:44.531Z,100127.13
2022-09-12T21:43:12.999Z,100127.06
2022-09-12T21:45:40.677Z,100129.00
2022-09-12T21:48:07.923Z,100122.06
2022-09-12T21:50:35.118Z,100122.06
2022-09-12T21:53:02.043Z,100125.13
2022-09-12T21:55:28.749Z,100119.03
2022-09-12T21:57:55.585Z,100117.75
2022-09-12T22:00:23.115Z,100113.09
2022-09-12T22:02:49.797Z,100107.94
2022-09-12T22:05:17.297Z,100113.75
2022-09-12T22:07:44.246Z,100114.06
2022-09-12T22:10:11.123Z,100118.84
2022-09-12T22:12:37.751Z,100110.03
2022-09-12T22:15:22.964Z,100114.56
2022-09-12T22:17:51.914Z,100111.78
2022-09-12T22:20:18.817Z,100111.78
2022-09-12T22:23:04.153Z,100105.53
2022-09-12T22:25:31.007Z,100110.78
2022-09-12T22:27:58.340Z,100116.44
2022-09-12T22:30:27.193Z,100124.63
2022-09-12T22:32:54.063Z,100120.63
2022-09-12T22:35:20.979Z,100121.69
2022-09-12T22:37:48.024Z,100130.34
2022-09-12T22:40:15.627Z,100125.53
2022-09-12T22:42:42.625Z,100124.16
2022-09-12T22:45:09.712Z,100115.81
2022-09-12T22:47:36.516Z,100116.81
2022-09-12T22:50:03.736Z,100120.78
2022-09-12T22:52:30.410Z,100110.41
2022-09-12T22:54:57.247Z,100109.44
2022-09-12T22:57:23.954Z,100105.47
2022-09-12T22:59:50.593Z,100096.69
2022-09-12T23:02:17.329Z,100091.22
2022-09-12T23:04:44.147Z,100090.88
2022-09-12T23:07:11.036Z,100092.69
2022-09-12T23:09:37.814Z,100092.69
2022-09-12T23:12:04.597Z,100090.69
2022-09-12T23:14:31.297Z,100089.41
2022-09-12T23:16:57.950Z,100084.16
2022-09-12T23:19:24.532Z,100079.59
2022-09-12T23:21:51.120Z,100076.66
2022-09-12T23:24:17.867Z,100073.34
2022-09-12T23:26:44.485Z,100085.94
2022-09-12T23:29:11.383Z,100084.94
2022-09-12T23:31:38.132Z,100086.56
2022-09-12T23:34:06.240Z,100082.22
2022-09-12T23:36:33.614Z,100080.72
2022-09-12T23:39:00.400Z,100081.28
2022-09-12T23:41:27.426Z,100088.16
2022-09-12T23:43:54.107Z,100087.97
2022-09-12T23:46:21.234Z,100097.63
2022-09-12T23:48:48.939Z,100098.47
2022-09-12T23:51:16.317Z,100097.06
2022-09-12T23:53:43.230Z,100096.47
2022-09-12T23:56:10.748Z,100098.16
2022-09-12T23:58:37.604Z,100100.38
